Time;durP1;ratioP1;P1;durP2;ratioP2;P2;SDS_P1;SDS_P2;PMS_P1;PMS_P2;Temp;Humidity;BMP_temperature;BMP_pressure;BME280_temperature;BME280_humidity;BME280_pressure;Samples;Min_cycle;Max_cycle;Signal;HPM_P1;HPM_P2
2022/04/11 00:02:15;;;;;;;;;4.00;2.50;;;;;15.39;35.35;101166.28;5092522;27;61718;-74
2022/04/11 00:04:42;;;;;;;;;6.75;5.00;;;;;15.37;35.25;101169.72;5102366;27;61791;-75
2022/04/11 00:07:07;;;;;;;;;7.00;4.00;;;;;15.37;35.54;101172.38;5093577;27;61776;-74
2022/04/11 00:09:33;;;;;;;;;6.25;5.00;;;;;15.36;35.57;101159.97;5100372;27;61800;-75
2022/04/11 00:11:58;;;;;;;;;6.50;4.75;;;;;15.31;35.21;101165.13;5118716;27;62373;-76
2022/04/11 00:14:24;;;;;;;;;6.00;3.50;;;;;15.31;35.44;101168.66;5090709;27;62590;-75
2022/04/11 00:16:50;;;;;;;;;6.50;4.50;;;;;15.30;35.61;101171.28;5082034;27;61801;-75
2022/04/11 00:19:15;;;;;;;;;2.25;2.25;;;;;15.30;35.67;101169.53;5100906;27;61965;-75
2022/04/11 00:21:41;;;;;;;;;4.00;4.00;;;;;15.30;36.16;101169.53;5102177;27;61931;-75
2022/04/11 00:24:07;;;;;;;;;5.25;4.00;;;;;15.28;35.61;101171.22;5092730;27;61918;-75
2022/04/11 00:26:32;;;;;;;;;5.75;5.00;;;;;15.28;35.83;101165.03;5082240;27;61781;-75
2022/04/11 00:28:58;;;;;;;;;5.25;5.00;;;;;15.27;35.33;101164.13;5089036;27;61893;-75
2022/04/11 00:31:23;;;;;;;;;6.00;4.00;;;;;15.22;35.67;101146.34;5082387;27;61998;-75
2022/04/11 00:34:01;;;;;;;;;4.25;4.25;;;;;15.17;35.50;101137.34;5087081;27;62354;-75
2022/04/11 00:36:26;;;;;;;;;3.50;3.50;;;;;15.14;35.43;101124.94;5102491;27;62031;-75
2022/04/11 00:38:51;;;;;;;;;5.50;4.00;;;;;15.12;35.41;101124.91;5100325;27;62055;-75
2022/04/11 00:41:17;;;;;;;;;4.00;3.00;;;;;15.12;35.39;101114.34;5101405;27;62250;-75
2022/04/11 00:43:43;;;;;;;;;4.00;3.00;;;;;15.09;35.57;101114.22;5099806;27;62273;-75
2022/04/11 00:46:09;;;;;;;;;4.00;2.00;;;;;15.11;35.61;101111.63;5101659;27;62407;-75
2022/04/11 00:48:35;;;;;;;;;4.00;2.75;;;;;15.08;35.88;101106.22;5096826;27;61964;-75
2022/04/11 00:51:21;;;;;;;;;6.50;3.50;;;;;15.07;35.42;101110.63;5083680;27;62305;-75
2022/04/11 00:53:47;;;;;;;;;3.00;3.00;;;;;15.06;35.52;101105.28;5100250;27;64115;-75
2022/04/11 00:56:16;;;;;;;;;4.75;4.00;;;;;15.05;35.33;101104.38;5095572;27;62076;-75
2022/04/11 00:58:41;;;;;;;;;2.25;2.25;;;;;15.03;35.75;101099.91;5069836;27;61845;-75
2022/04/11 01:01:07;;;;;;;;;3.00;2.00;;;;;15.02;35.61;101090.19;5085256;27;61696;-75
2022/04/11 01:03:33;;;;;;;;;4.00;4.00;;;;;14.98;35.52;101088.31;5101268;27;62880;-75
2022/04/11 01:06:00;;;;;;;;;4.75;2.00;;;;;14.96;36.02;101082.97;5100191;27;61930;-75
2022/04/11 01:08:25;;;;;;;;;2.00;2.00;;;;;14.96;36.12;101080.31;5097141;27;61976;-75
2022/04/11 01:10:54;;;;;;;;;3.75;3.00;;;;;14.99;36.44;101077.75;5103497;27;61855;-75
2022/04/11 01:13:19;;;;;;;;;2.50;2.50;;;;;14.97;35.71;101073.28;5100912;27;61743;-75
2022/04/11 01:16:00;;;;;;;;;2.25;2.25;;;;;14.93;35.92;101067.91;5095786;27;61837;-75
2022/04/11 01:18:25;;;;;;;;;2.00;2.00;;;;;14.87;35.73;101062.44;5084393;27;61890;-75
2022/04/11 01:20:52;;;;;;;;;3.00;3.00;;;;;14.86;35.71;101068.53;5099938;27;62052;-75
2022/04/11 01:23:17;;;;;;;;;7.00;3.00;;;;;14.83;35.82;101055.25;5099455;27;64870;-75
2022/04/11 01:25:49;;;;;;;;;3.00;3.00;;;;;14.83;35.74;101049.97;5099516;27;61719;-75
2022/04/11 01:28:14;;;;;;;;;3.00;3.00;;;;;14.82;36.02;101052.56;5098750;27;61887;-75
2022/04/11 01:30:40;;;;;;;;;3.00;3.00;;;;;14.82;35.98;101042.88;5081225;28;61774;-75
2022/04/11 01:33:21;;;;;;;;;2.00;2.00;;;;;14.79;35.63;101047.19;5092038;27;62722;-74
2022/04/11 01:35:47;;;;;;;;;5.00;2.75;;;;;14.83;35.94;101043.78;5104685;27;61786;-75
2022/04/11 01:38:13;;;;;;;;;2.00;2.00;;;;;14.77;35.97;101039.19;5102288;27;62018;-75
2022/04/11 01:40:50;;;;;;;;;5.00;3.00;;;;;14.77;36.24;101036.56;5084892;27;61853;-75
2022/04/11 01:43:16;;;;;;;;;2.00;2.00;;;;;14.72;35.93;101038.16;5096494;27;62751;-75
2022/04/11 01:45:41;;;;;;;;;1.50;1.50;;;;;14.71;35.54;101029.31;5104525;27;62057;-74
2022/04/11 01:48:07;;;;;;;;;4.25;2.50;;;;;14.68;36.05;101023.97;5093506;27;61727;-75
2022/04/11 01:50:32;;;;;;;;;2.00;2.00;;;;;14.67;35.90;101024.78;5104511;27;62065;-74
2022/04/11 01:53:18;;;;;;;;;3.00;1.25;;;;;14.65;35.33;101018.59;5093189;27;61923;-75
2022/04/11 01:55:44;;;;;;;;;2.00;2.00;;;;;14.60;35.16;101019.28;5084047;27;61723;-74
2022/04/11 01:58:10;;;;;;;;;2.00;2.00;;;;;14.59;35.46;101025.41;5072512;27;61814;-74
2022/04/11 02:00:37;;;;;;;;;2.00;2.00;;;;;14.59;35.71;101028.97;5085144;27;61682;-75
2022/04/11 02:03:04;;;;;;;;;3.00;2.00;;;;;14.59;35.50;101021.03;5094364;27;61850;-75
2022/04/11 02:05:30;;;;;;;;;1.00;1.00;;;;;14.60;35.66;101016.63;5104143;27;61922;-75
2022/04/11 02:07:56;;;;;;;;;2.75;2.75;;;;;14.61;35.18;101015.78;5102691;27;62058;-75
2022/04/11 02:10:22;;;;;;;;;2.50;2.50;;;;;14.52;35.36;101012.00;5084657;27;62070;-75
2022/04/11 02:12:49;;;;;;;;;2.00;2.00;;;;;14.51;35.38;101011.94;5098057;27;61990;-75
2022/04/11 02:15:15;;;;;;;;;3.25;2.25;;;;;14.48;35.29;101004.81;5104166;27;62133;-75
2022/04/11 02:17:40;;;;;;;;;2.00;2.00;;;;;14.50;35.38;100999.56;5090044;27;62019;-75
2022/04/11 02:20:08;;;;;;;;;2.00;2.00;;;;;14.48;35.31;101001.25;5100479;27;61796;-75
2022/04/11 02:23:03;;;;;;;;;2.25;1.50;;;;;14.46;35.32;100995.00;5090401;27;61801;-75
2022/04/11 02:25:32;;;;;;;;;1.75;1.25;;;;;14.45;35.47;100996.78;5082928;27;62053;-75
2022/04/11 02:27:58;;;;;;;;;3.00;2.00;;;;;14.41;35.40;100991.34;5084779;27;61978;-76
2022/04/11 02:30:24;;;;;;;;;2.50;2.00;;;;;14.43;35.27;100990.53;5103622;27;62350;-75
2022/04/11 02:32:51;;;;;;;;;1.00;1.00;;;;;14.39;35.26;100987.75;5103271;27;62031;-75
2022/04/11 02:35:17;;;;;;;;;2.00;2.00;;;;;14.37;35.30;100992.09;5092277;27;62030;-75
2022/04/11 02:37:44;;;;;;;;;2.00;2.00;;;;;14.35;35.41;100986.75;5102172;27;61867;-75
2022/04/11 02:40:12;;;;;;;;;1.50;1.50;;;;;14.37;35.83;100984.16;5102508;27;61866;-75
2022/04/11 02:42:41;;;;;;;;;2.00;2.00;;;;;14.37;35.59;100989.44;5103155;27;61817;-75
2022/04/11 02:45:07;;;;;;;;;1.00;1.00;;;;;14.34;35.85;100976.16;5093515;27;61718;-75
2022/04/11 02:47:33;;;;;;;;;3.00;3.00;;;;;14.29;35.73;100986.59;5098674;27;62051;-75
2022/04/11 02:49:58;;;;;;;;;2.00;2.00;;;;;14.26;35.38;100982.06;5091431;27;62052;-75
2022/04/11 02:52:23;;;;;;;;;1.00;1.00;;;;;14.26;35.59;100975.91;5103142;27;62697;-75
2022/04/11 02:54:49;;;;;;;;;2.00;2.00;;;;;14.21;35.65;100973.13;5096145;27;61972;-75
2022/04/11 02:57:14;;;;;;;;;5.50;3.75;;;;;14.21;35.84;100965.19;5095146;27;61813;-75
2022/04/11 02:59:40;;;;;;;;;2.00;1.75;;;;;14.21;35.73;100948.47;5081080;27;62675;-76
2022/04/11 03:02:05;;;;;;;;;2.75;2.50;;;;;14.17;36.34;100947.47;5082493;27;62175;-75
2022/04/11 03:04:31;;;;;;;;;2.50;2.50;;;;;14.15;36.59;100945.63;5089063;27;61966;-75
2022/04/11 03:06:56;;;;;;;;;7.00;2.00;;;;;14.11;36.30;100944.63;5088088;27;61881;-75
2022/04/11 03:09:22;;;;;;;;;5.50;3.50;;;;;14.07;36.72;100937.44;5098077;27;61831;-75
2022/04/11 03:11:48;;;;;;;;;4.75;3.50;;;;;14.04;36.66;100945.28;5082024;27;61890;-75
2022/04/11 03:14:13;;;;;;;;;4.00;2.50;;;;;14.02;36.74;100946.97;5100170;27;61852;-75
2022/04/11 03:16:40;;;;;;;;;2.25;2.25;;;;;14.00;37.28;100941.63;5089907;27;61816;-75
2022/04/11 03:19:06;;;;;;;;;7.00;4.00;;;;;13.98;37.35;100937.16;5082661;27;62007;-75
2022/04/11 03:21:31;;;;;;;;;4.00;4.00;;;;;13.91;37.51;100936.94;5082162;27;61881;-74
2022/04/11 03:23:57;;;;;;;;;2.75;2.75;;;;;13.88;37.67;100941.22;5096294;27;63155;-74
2022/04/11 03:26:22;;;;;;;;;3.25;3.25;;;;;13.82;37.64;100936.66;5093167;27;62955;-75
2022/04/11 03:28:47;;;;;;;;;7.00;4.00;;;;;13.85;38.03;100946.41;5082637;27;61918;-75
2022/04/11 03:31:13;;;;;;;;;5.25;5.25;;;;;13.82;38.25;100948.94;5081982;27;62843;-75
2022/04/11 03:33:38;;;;;;;;;3.75;3.75;;;;;13.80;38.27;100945.38;5094293;27;61863;-74
2022/04/11 03:36:05;;;;;;;;;4.00;4.00;;;;;13.76;38.22;100939.06;5095790;27;61875;-75
2022/04/11 03:38:30;;;;;;;;;5.50;2.25;;;;;13.79;38.07;100946.19;5093476;27;61867;-75
2022/04/11 03:40:56;;;;;;;;;6.00;4.00;;;;;13.74;38.14;100947.78;5117970;27;64159;-75
2022/04/11 03:43:21;;;;;;;;;3.50;3.50;;;;;13.72;38.12;100947.72;5092806;27;61892;-75
2022/04/11 03:45:47;;;;;;;;;2.50;2.50;;;;;13.70;38.45;100945.03;5087327;27;62127;-75
2022/04/11 03:48:12;;;;;;;;;4.00;3.00;;;;;13.67;38.12;100930.88;5105240;27;61946;-75
2022/04/11 03:50:39;;;;;;;;;7.75;4.00;;;;;13.62;38.63;100922.75;5102150;27;62711;-75
2022/04/11 03:53:04;;;;;;;;;5.50;4.00;;;;;13.59;38.14;100919.16;5094135;27;61878;-75
2022/04/11 03:55:30;;;;;;;;;4.00;4.00;;;;;13.58;38.17;100918.25;5099965;27;61741;-75
2022/04/11 03:57:55;;;;;;;;;8.00;2.75;;;;;13.57;38.61;100913.81;5089389;27;61748;-75
2022/04/11 04:00:21;;;;;;;;;4.00;2.50;;;;;13.53;38.67;100913.66;5081460;27;61731;-76
2022/04/11 04:02:46;;;;;;;;;6.00;4.25;;;;;13.51;38.67;100908.31;5085838;27;62093;-75
2022/04/11 04:05:12;;;;;;;;;3.50;3.00;;;;;13.50;38.92;100906.53;5102548;27;61772;-75
2022/04/11 04:07:37;;;;;;;;;4.00;4.00;;;;;13.49;38.50;100902.09;5087572;27;61717;-75
2022/04/11 04:10:04;;;;;;;;;3.50;3.50;;;;;13.46;38.45;100894.09;5101557;27;62523;-76
2022/04/11 04:12:29;;;;;;;;;4.00;4.00;;;;;13.44;38.69;100898.41;5098458;27;61942;-75
2022/04/11 04:14:55;;;;;;;;;4.00;4.00;;;;;13.41;38.76;100895.66;5081276;27;62235;-75
2022/04/11 04:17:20;;;;;;;;;9.25;4.50;;;;;13.39;38.91;100903.53;5098860;27;61870;-75
2022/04/11 04:19:46;;;;;;;;;5.00;5.00;;;;;13.36;38.47;100898.13;5093902;27;61955;-75
2022/04/11 04:22:12;;;;;;;;;9.50;6.00;;;;;13.35;39.14;100906.00;5081658;27;62027;-74
2022/04/11 04:24:37;;;;;;;;;7.50;5.00;;;;;13.32;39.24;100906.78;5081879;28;61861;-74
2022/04/11 04:27:07;;;;;;;;;5.75;4.00;;;;;13.31;39.72;100904.13;5086082;27;61947;-75
2022/04/11 04:29:33;;;;;;;;;8.50;7.25;;;;;13.29;39.50;100888.22;5096596;27;64039;-74
2022/04/11 04:31:59;;;;;;;;;6.50;6.00;;;;;13.26;39.27;100886.34;5081447;27;61818;-75
2022/04/11 04:34:25;;;;;;;;;6.50;4.25;;;;;13.22;39.20;100881.81;5081954;27;61906;-75
2022/04/11 04:36:52;;;;;;;;;7.50;7.50;;;;;13.22;40.13;100876.53;5097034;27;61862;-75
2022/04/11 04:39:17;;;;;;;;;11.75;8.00;;;;;13.19;39.55;100870.25;5096030;27;63731;-75
2022/04/11 04:41:42;;;;;;;;;17.50;12.50;;;;;13.17;39.96;100877.22;5087654;27;61780;-75
2022/04/11 04:44:08;;;;;;;;;11.25;7.00;;;;;13.14;39.76;100875.38;5101283;27;61971;-75
2022/04/11 04:46:34;;;;;;;;;13.50;9.75;;;;;13.13;39.73;100883.22;5097252;27;61784;-75
2022/04/11 04:49:00;;;;;;;;;16.25;11.50;;;;;13.10;39.73;100877.00;5099594;27;64529;-75
2022/04/11 04:51:26;;;;;;;;;24.00;15.00;;;;;13.08;40.06;100883.94;5101758;27;61884;-75
2022/04/11 04:53:51;;;;;;;;;31.50;28.25;;;;;13.08;39.92;100893.59;5101779;27;61931;-76
2022/04/11 04:56:17;;;;;;;;;46.75;31.75;;;;;13.06;40.15;100897.91;5094909;27;61711;-75
2022/04/11 04:58:45;;;;;;;;;29.50;18.75;;;;;13.00;40.54;100910.88;5074506;27;62096;-75
2022/04/11 05:01:11;;;;;;;;;47.50;36.00;;;;;12.98;40.63;100910.84;5081081;27;61977;-75
2022/04/11 05:03:37;;;;;;;;;50.25;39.75;;;;;12.98;40.35;100912.53;5080058;27;61950;-75
2022/04/11 05:06:03;;;;;;;;;32.50;25.25;;;;;12.98;40.15;100909.91;5081709;27;61907;-76
2022/04/11 05:08:31;;;;;;;;;43.00;40.00;;;;;12.99;40.41;100909.97;5079967;28;63734;-75
2022/04/11 05:11:01;;;;;;;;;35.75;29.50;;;;;12.97;40.06;100901.13;5085050;27;61865;-75
2022/04/11 05:13:27;;;;;;;;;11.00;9.00;;;;;12.93;40.14;100893.06;5105830;27;62048;-75
2022/04/11 05:15:52;;;;;;;;;14.25;14.25;;;;;12.93;40.19;100893.06;5104326;27;61865;-75
2022/04/11 05:18:18;;;;;;;;;9.25;9.25;;;;;12.88;40.44;100893.78;5082385;27;63707;-75
2022/04/11 05:20:44;;;;;;;;;29.25;28.25;;;;;12.91;40.36;100890.34;5084825;27;61846;-75
2022/04/11 05:23:09;;;;;;;;;30.50;29.50;;;;;12.93;40.75;100893.94;5085093;27;61913;-75
2022/04/11 05:25:35;;;;;;;;;13.00;12.50;;;;;12.93;40.62;100899.22;5085152;27;61686;-76
2022/04/11 05:28:01;;;;;;;;;8.00;8.00;;;;;12.91;40.10;100885.09;5101749;27;63912;-75
2022/04/11 05:30:26;;;;;;;;;11.50;10.00;;;;;12.91;40.69;100878.91;5105094;27;61709;-76
2022/04/11 05:32:52;;;;;;;;;17.00;16.00;;;;;12.96;40.64;100893.16;5104750;27;61876;-76
2022/04/11 05:35:17;;;;;;;;;14.75;10.00;;;;;12.95;40.77;100880.84;5084162;27;62061;-75
2022/04/11 05:37:43;;;;;;;;;34.25;26.75;;;;;12.96;40.52;100882.59;5091395;27;63559;-75
2022/04/11 05:40:11;;;;;;;;;17.25;14.25;;;;;12.95;40.45;100884.34;5085360;28;61840;-76
2022/04/11 05:42:37;;;;;;;;;26.75;25.50;;;;;12.98;40.66;100879.22;5097576;27;61863;-76
2022/04/11 05:45:06;;;;;;;;;18.25;18.25;;;;;13.02;40.36;100881.09;5104420;27;62222;-76
2022/04/11 05:47:31;;;;;;;;;45.00;36.00;;;;;13.06;40.41;100879.47;5078668;27;62086;-79
2022/04/11 05:49:57;;;;;;;;;66.67;50.33;;;;;13.10;40.08;100884.91;5097005;27;61739;-79
2022/04/11 05:52:22;;;;;;;;;79.00;56.00;;;;;13.15;40.66;100886.81;5082059;27;61945;-76
2022/04/11 05:54:48;;;;;;;;;57.75;47.50;;;;;13.16;39.78;100889.50;5095115;27;62211;-76
2022/04/11 05:57:15;;;;;;;;;47.25;36.75;;;;;13.23;39.76;100890.63;5076020;27;62270;-76
2022/04/11 05:59:41;;;;;;;;;14.50;9.00;;;;;13.24;39.73;100893.31;5082476;27;62070;-78
2022/04/11 06:02:09;;;;;;;;;14.50;10.25;;;;;13.32;40.16;100895.34;5100806;27;61999;-78
2022/04/11 06:04:36;;;;;;;;;20.50;17.00;;;;;13.36;40.38;100894.59;5090237;27;62105;-78
2022/04/11 06:07:02;;;;;;;;;22.75;19.75;;;;;13.41;40.08;100887.75;5100015;27;63634;-77
2022/04/11 06:09:27;;;;;;;;;13.00;12.25;;;;;13.46;39.78;100886.19;5082498;28;61745;-74
2022/04/11 06:11:53;;;;;;;;;18.75;13.00;;;;;13.49;40.05;100891.53;5092656;27;62136;-74
2022/04/11 06:14:18;;;;;;;;;10.25;9.50;;;;;13.55;39.79;100897.03;5081361;27;62161;-76
2022/04/11 06:16:44;;;;;;;;;13.75;11.00;;;;;13.57;40.28;100890.06;5091074;27;63264;-75
2022/04/11 06:19:09;;;;;;;;;11.75;11.75;;;;;13.59;39.55;100892.78;5093094;27;62052;-75
2022/04/11 06:21:35;;;;;;;;;22.50;19.00;;;;;13.65;39.76;100892.97;5082610;27;61850;-75
2022/04/11 06:24:00;;;;;;;;;29.25;22.50;;;;;13.71;39.61;100890.56;5081429;27;62117;-75
2022/04/11 06:26:26;;;;;;;;;23.50;23.50;;;;;13.77;39.41;100882.81;5068234;27;61854;-76
2022/04/11 06:28:51;;;;;;;;;12.75;12.25;;;;;13.81;39.22;100884.72;5083221;27;61987;-75
2022/04/11 06:31:17;;;;;;;;;13.00;10.00;;;;;13.86;38.79;100882.22;5083439;27;62223;-77
2022/04/11 06:33:42;;;;;;;;;14.25;12.00;;;;;13.89;38.82;100864.75;5095473;27;62060;-75
2022/04/11 06:36:08;;;;;;;;;16.50;13.50;;;;;13.95;38.41;100858.78;5101375;27;61998;-75
2022/04/11 06:38:34;;;;;;;;;14.00;11.00;;;;;14.02;38.41;100867.78;5118665;27;61814;-75
2022/04/11 06:40:59;;;;;;;;;18.00;10.75;;;;;14.04;38.21;100860.81;5102552;27;61949;-75
2022/04/11 06:43:25;;;;;;;;;11.00;10.75;;;;;14.09;37.54;100851.28;5096321;27;62162;-75
2022/04/11 06:45:51;;;;;;;;;9.00;9.00;;;;;14.22;37.59;100852.56;5098407;27;62673;-75
2022/04/11 06:48:17;;;;;;;;;8.75;8.75;;;;;14.47;37.07;100859.47;5084944;27;62027;-75
2022/04/11 06:50:43;;;;;;;;;10.75;10.75;;;;;14.83;37.53;100851.75;5087263;27;62017;-78
2022/04/11 06:53:09;;;;;;;;;14.75;13.75;;;;;15.18;36.46;100841.25;5091190;27;61876;-75
2022/04/11 06:55:34;;;;;;;;;22.00;18.25;;;;;15.54;36.31;100838.66;5097388;27;62474;-75
2022/04/11 06:58:00;;;;;;;;;18.25;18.00;;;;;16.04;35.24;100835.44;5082348;27;61981;-75
2022/04/11 07:00:25;;;;;;;;;12.75;10.00;;;;;16.48;34.48;100835.53;5082065;27;61973;-75
2022/04/11 07:02:51;;;;;;;;;10.75;8.50;;;;;16.90;33.48;100833.75;5082459;27;61857;-75
2022/04/11 07:05:16;;;;;;;;;12.25;11.50;;;;;17.33;32.75;100837.19;5099297;27;62463;-75
2022/04/11 07:07:42;;;;;;;;;14.00;9.50;;;;;17.52;33.79;100835.75;5100016;27;61796;-76
2022/04/11 07:10:09;;;;;;;;;16.25;11.00;;;;;17.61;31.75;100820.00;5082343;27;61897;-79
2022/04/11 07:12:41;;;;;;;;;11.50;10.00;;;;;17.47;32.14;100814.44;5097801;27;61897;-74
2022/04/11 07:15:08;;;;;;;;;13.00;6.75;;;;;17.49;32.08;100809.19;5070307;27;62085;-76
2022/04/11 07:17:33;;;;;;;;;12.25;9.50;;;;;17.50;32.10;100809.22;5098037;27;61873;-76
2022/04/11 07:19:59;;;;;;;;;9.25;8.00;;;;;17.52;31.94;100804.81;5103260;27;61828;-76
2022/04/11 07:22:24;;;;;;;;;11.75;9.75;;;;;17.64;32.04;100805.88;5101717;27;61742;-80
2022/04/11 07:24:50;;;;;;;;;16.50;14.50;;;;;17.63;32.24;100791.72;5096101;27;63730;-76
2022/04/11 07:27:15;;;;;;;;;24.75;16.50;;;;;17.66;31.95;100793.53;5073797;27;61913;-76
2022/04/11 07:29:41;;;;;;;;;16.25;14.00;;;;;17.58;31.83;100804.88;5082209;27;61844;-76
2022/04/11 07:32:07;;;;;;;;;14.50;11.75;;;;;17.49;31.89;100799.44;5080839;27;61912;-76
2022/04/11 07:34:32;;;;;;;;;7.75;7.75;;;;;17.51;31.89;100802.13;5087156;27;63604;-76
2022/04/11 07:36:58;;;;;;;;;12.00;10.50;;;;;17.49;31.83;100794.13;5068968;27;62193;-82
2022/04/11 07:39:23;;;;;;;;;8.25;7.75;;;;;17.45;32.00;100799.38;5080458;27;61802;-76
2022/04/11 07:41:50;;;;;;;;;10.75;8.50;;;;;17.38;32.68;100796.63;5079450;27;61871;-82
2022/04/11 07:44:16;;;;;;;;;11.75;9.50;;;;;17.41;31.88;100792.22;5079407;28;64758;-76
2022/04/11 07:46:41;;;;;;;;;6.25;5.75;;;;;17.39;32.26;100794.84;5080754;28;61954;-76
2022/04/11 07:49:06;;;;;;;;;7.50;6.75;;;;;17.48;32.52;100797.66;5081027;27;61767;-76
2022/04/11 07:51:32;;;;;;;;;9.25;9.25;;;;;17.52;32.29;100791.53;5082088;27;61999;-76
2022/04/11 07:53:57;;;;;;;;;11.00;7.25;;;;;17.53;32.25;100788.00;5080579;28;61696;-75
2022/04/11 07:56:23;;;;;;;;;8.00;7.50;;;;;17.52;31.96;100787.97;5072504;27;61849;-76
2022/04/11 07:58:48;;;;;;;;;11.75;11.25;;;;;17.56;32.47;100784.50;5080141;27;61877;-75
2022/04/11 08:01:16;;;;;;;;;5.00;5.00;;;;;17.58;31.34;100772.16;5072471;27;62028;-75
2022/04/11 08:03:44;;;;;;;;;8.50;7.25;;;;;17.55;31.73;100770.34;5069923;27;64785;-76
2022/04/11 08:06:10;;;;;;;;;11.00;8.00;;;;;17.54;32.16;100767.66;5061820;27;61896;-76
2022/04/11 08:08:35;;;;;;;;;12.75;11.00;;;;;17.55;32.33;100765.03;5072750;27;61912;-75
2022/04/11 08:11:02;;;;;;;;;14.00;8.25;;;;;17.62;32.47;100765.13;5075998;27;62337;-76
2022/04/11 08:13:27;;;;;;;;;10.75;10.25;;;;;17.65;32.19;100762.50;5061936;27;62548;-76
2022/04/11 08:15:53;;;;;;;;;10.75;7.25;;;;;17.62;32.05;100758.06;5081039;27;62099;-76
2022/04/11 08:18:18;;;;;;;;;8.25;7.75;;;;;17.66;31.92;100773.16;5081242;27;61900;-76
2022/04/11 08:20:45;;;;;;;;;7.75;6.50;;;;;17.70;32.10;100767.03;5080534;27;61803;-76
2022/04/11 08:23:11;;;;;;;;;8.50;7.50;;;;;17.78;32.47;100770.72;5080721;27;61849;-76
2022/04/11 08:25:36;;;;;;;;;12.00;9.00;;;;;17.83;32.02;100765.50;5080260;28;61804;-76
2022/04/11 08:28:03;;;;;;;;;9.50;7.25;;;;;17.86;31.83;100765.53;5097276;27;61928;-76
2022/04/11 08:30:28;;;;;;;;;11.00;8.75;;;;;17.90;32.21;100761.16;5080454;28;62136;-76
2022/04/11 08:32:55;;;;;;;;;9.00;7.75;;;;;17.95;31.96;100760.34;5079471;27;61855;-75
2022/04/11 08:35:22;;;;;;;;;6.00;6.00;;;;;18.01;32.01;100756.88;5079143;27;61787;-76
2022/04/11 08:37:48;;;;;;;;;8.50;7.25;;;;;18.04;32.02;100754.28;5080033;27;61779;-76
2022/04/11 08:40:15;;;;;;;;;8.00;8.00;;;;;18.10;31.79;100754.38;5080120;27;61788;-76
2022/04/11 08:42:43;;;;;;;;;8.00;8.00;;;;;18.15;31.58;100752.66;5080050;27;61772;-76
2022/04/11 08:45:09;;;;;;;;;6.75;6.75;;;;;18.12;31.40;100739.34;5067843;27;61946;-76
2022/04/11 08:47:35;;;;;;;;;7.75;6.25;;;;;18.11;31.10;100739.31;5077407;27;62256;-76
2022/04/11 08:50:03;;;;;;;;;11.50;8.50;;;;;18.08;31.08;100732.19;5074662;27;61920;-76
2022/04/11 08:52:30;;;;;;;;;4.75;4.75;;;;;18.13;31.97;100721.63;5083741;27;62150;-76
2022/04/11 08:54:56;;;;;;;;;7.00;6.25;;;;;18.23;31.87;100719.97;5083547;27;62280;-76
2022/04/11 08:57:23;;;;;;;;;8.00;6.50;;;;;18.33;31.77;100716.53;5084850;27;62063;-76
2022/04/11 08:59:48;;;;;;;;;9.00;5.25;;;;;18.42;31.46;100721.06;5074597;27;61942;-75
2022/04/11 09:02:14;;;;;;;;;5.50;4.50;;;;;18.43;30.74;100717.56;5063851;27;62592;-75
2022/04/11 09:04:55;;;;;;;;;4.75;4.00;;;;;18.47;31.39;100709.63;5067710;27;61809;-75
2022/04/11 09:07:21;;;;;;;;;6.50;5.50;;;;;18.45;30.44;100713.16;5079217;27;61974;-75
2022/04/11 09:09:46;;;;;;;;;6.75;6.75;;;;;18.53;30.75;100708.78;5078320;27;62790;-75
2022/04/11 09:12:17;;;;;;;;;6.50;4.50;;;;;18.45;30.50;100713.16;5081761;27;62129;-75
2022/04/11 09:14:44;;;;;;;;;6.25;4.50;;;;;18.52;30.85;100712.31;5084613;27;61945;-75
2022/04/11 09:17:11;;;;;;;;;3.75;3.75;;;;;18.52;30.59;100707.91;5081385;27;61936;-75
2022/04/11 09:19:38;;;;;;;;;2.75;2.00;;;;;18.60;30.82;100710.66;5064537;27;61825;-75
2022/04/11 09:22:04;;;;;;;;;8.75;4.50;;;;;18.58;30.45;100707.97;5072402;27;62218;-75
2022/04/11 09:24:31;;;;;;;;;3.25;3.00;;;;;18.67;31.17;100712.47;5083089;27;62129;-75
2022/04/11 09:26:58;;;;;;;;;5.00;3.75;;;;;18.75;30.08;100705.47;5067888;27;61883;-75
2022/04/11 09:29:30;;;;;;;;;3.75;3.75;;;;;18.75;30.59;100692.19;5083260;27;61973;-75
2022/04/11 09:32:03;;;;;;;;;7.75;6.00;;;;;18.85;30.14;100701.16;5098851;27;63791;-75
2022/04/11 09:34:29;;;;;;;;;6.25;3.50;;;;;18.94;30.75;100692.38;5068579;27;61972;-76
2022/04/11 09:36:57;;;;;;;;;5.75;3.00;;;;;18.96;30.13;100693.28;5072477;27;62267;-75
2022/04/11 09:39:25;;;;;;;;;2.75;2.75;;;;;19.08;30.84;100689.81;5064472;27;62099;-76
2022/04/11 09:41:51;;;;;;;;;4.00;4.00;;;;;19.23;31.64;100692.59;5085134;27;63796;-78
2022/04/11 09:44:29;;;;;;;;;3.00;3.00;;;;;19.33;31.28;100681.16;5087088;27;61983;-78
2022/04/11 09:47:02;;;;;;;;;2.00;2.00;;;;;19.47;30.36;100680.34;5074657;27;62099;-78
2022/04/11 09:49:27;;;;;;;;;3.00;3.00;;;;;19.52;30.91;100674.19;5082462;27;61749;-77
2022/04/11 09:52:12;;;;;;;;;2.00;2.00;;;;;19.62;31.25;100664.44;5083798;27;61857;-78
2022/04/11 09:54:46;;;;;;;;;6.00;5.00;;;;;19.68;30.69;100667.16;5091567;27;62397;-77
2022/04/11 09:57:16;;;;;;;;;4.25;3.00;;;;;19.70;30.28;100667.19;5085925;27;62082;-76
2022/04/11 09:59:45;;;;;;;;;8.50;3.50;;;;;19.77;30.63;100666.34;5088565;27;61927;-76
2022/04/11 10:02:17;;;;;;;;;16.50;16.50;;;;;19.90;31.86;100675.28;5070572;28;63860;-77
2022/04/11 10:04:46;;;;;;;;;3.00;3.00;;;;;19.91;29.25;100666.41;5083227;28;61928;-77
2022/04/11 10:07:12;;;;;;;;;4.50;3.00;;;;;20.00;30.07;100661.13;5083729;27;61838;-77
2022/04/11 10:09:41;;;;;;;;;5.00;3.25;;;;;20.13;30.05;100656.72;5094213;27;61871;-76
2022/04/11 10:12:08;;;;;;;;;10.00;4.50;;;;;20.30;29.48;100649.66;5087505;27;62557;-76
2022/04/11 10:14:34;;;;;;;;;4.50;3.00;;;;;20.42;29.35;100649.69;5096753;27;61944;-76
2022/04/11 10:17:02;;;;;;;;;5.25;3.50;;;;;20.49;29.12;100653.25;5095961;27;61932;-76
2022/04/11 10:19:33;;;;;;;;;4.25;2.00;;;;;20.65;29.42;100656.84;5082668;27;62034;-76
2022/04/11 10:22:14;;;;;;;;;3.25;2.00;;;;;20.73;28.87;100649.75;5096551;27;63735;-77
2022/04/11 10:24:57;;;;;;;;;3.50;3.50;;;;;20.87;28.60;100643.56;5080801;28;62067;-76
2022/04/11 10:27:25;;;;;;;;;3.25;2.00;;;;;20.96;28.03;100638.19;5085217;27;62004;-76
2022/04/11 10:29:55;;;;;;;;;2.00;2.00;;;;;20.96;27.14;100641.75;5084885;27;61872;-76
2022/04/11 10:32:25;;;;;;;;;2.50;2.50;;;;;20.94;27.41;100634.63;5089149;27;61920;-76
2022/04/11 10:35:04;;;;;;;;;3.50;3.00;;;;;21.10;27.83;100635.50;5084725;27;61934;-76
2022/04/11 10:37:35;;;;;;;;;2.00;2.00;;;;;21.17;28.10;100624.81;5084615;27;61734;-76
2022/04/11 10:40:16;;;;;;;;;3.75;3.00;;;;;21.28;28.09;100616.78;5099482;27;62009;-76
2022/04/11 10:43:04;;;;;;;;;3.00;3.00;;;;;21.31;27.89;100618.56;5089688;27;62084;-76
2022/04/11 10:45:31;;;;;;;;;3.25;2.25;;;;;21.36;28.03;100608.75;5080669;27;62219;-76
2022/04/11 10:47:57;;;;;;;;;2.75;2.75;;;;;21.44;28.34;100609.66;5082048;27;61864;-77
2022/04/11 10:50:32;;;;;;;;;5.25;4.00;;;;;21.50;27.50;100611.44;5098145;27;61955;-76
2022/04/11 10:53:24;;;;;;;;;2.00;1.00;;;;;21.48;28.17;100608.75;5097487;27;65213;-77
2022/04/11 10:55:56;;;;;;;;;2.25;2.25;;;;;21.59;27.68;100600.69;5081945;27;62335;-77
2022/04/11 10:58:23;;;;;;;;;3.00;3.00;;;;;21.67;27.71;100598.00;5080256;27;62038;-78
2022/04/11 11:00:49;;;;;;;;;4.75;2.00;;;;;21.74;27.63;100591.75;5084962;27;61846;-76
2022/04/11 11:03:14;;;;;;;;;4.25;3.50;;;;;21.77;27.93;100578.38;5101827;27;62528;-77
2022/04/11 11:05:45;;;;;;;;;2.00;2.00;;;;;22.04;27.65;100580.91;5093159;27;61783;-78
2022/04/11 11:08:11;;;;;;;;;2.00;2.00;;;;;22.22;28.90;100576.34;5101361;27;62269;-77
2022/04/11 11:10:46;;;;;;;;;2.00;2.00;;;;;22.37;28.08;100583.41;5102580;27;61819;-76
2022/04/11 11:13:34;;;;;;;;;2.00;2.00;;;;;22.59;27.56;100581.44;5101461;27;61996;-76
2022/04/11 11:16:20;;;;;;;;;2.00;2.00;;;;;22.63;27.74;100578.72;5082879;27;61980;-79
2022/04/11 11:21:27;;;;;;;;;1.50;1.50;;;;;23.00;27.23;100586.44;5088197;27;61912;-78
2022/04/11 11:24:08;;;;;;;;;2.50;2.50;;;;;23.20;26.88;100588.00;5095883;27;63267;-76
2022/04/11 11:26:40;;;;;;;;;3.25;3.00;;;;;23.38;27.20;100590.50;5099270;27;61906;-77